Time;durP1;ratioP1;P1;durP2;ratioP2;P2;SDS_P1;SDS_P2;PMS_P1;PMS_P2;Temp;Humidity;BMP_temperature;BMP_pressure;BME280_temperature;BME280_humidity;BME280_pressure;Samples;Min_cycle;Max_cycle;Signal;HPM_P1;HPM_P2
2022/11/30 00:01:20;;;;;;;114.77;57.80;;;;;;;-0.46;81.85;101141.83;2101160;84;29335;-71
2022/11/30 00:04:21;;;;;;;106.22;54.42;;;;;;;-0.44;81.98;101140.97;2152934;82;27735;-70
2022/11/30 00:07:22;;;;;;;109.27;55.48;;;;;;;-0.46;82.00;101147.55;2094647;84;28631;-70
2022/11/30 00:10:24;;;;;;;103.22;53.92;;;;;;;-0.50;81.92;101146.64;2099221;84;31067;-70
2022/11/30 00:13:25;;;;;;;113.55;57.53;;;;;;;-0.51;82.00;101150.55;2152834;82;32941;-70
2022/11/30 00:16:26;;;;;;;106.78;53.65;;;;;;;-0.51;81.99;101151.45;2152544;82;29388;-70
2022/11/30 00:19:27;;;;;;;113.83;57.73;;;;;;;-0.50;82.09;101154.95;2125426;83;27650;-70
2022/11/30 00:22:29;;;;;;;107.70;54.70;;;;;;;-0.51;81.98;101154.09;2146901;82;28625;-71
2022/11/30 00:25:30;;;;;;;106.17;56.13;;;;;;;-0.52;82.07;101151.42;2146985;82;31018;-71
2022/11/30 00:28:32;;;;;;;110.92;54.93;;;;;;;-0.52;81.93;101157.59;2147024;82;32945;-71
2022/11/30 00:31:34;;;;;;;106.90;55.78;;;;;;;-0.54;82.03;101159.31;2146950;82;29354;-71
2022/11/30 00:34:35;;;;;;;109.95;54.80;;;;;;;-0.54;81.91;101161.95;2147159;82;27582;-71
2022/11/30 00:37:36;;;;;;;110.78;56.28;;;;;;;-0.54;81.94;101160.62;2137010;83;28636;-71
2022/11/30 00:40:37;;;;;;;106.70;54.48;;;;;;;-0.54;81.96;101159.73;2152881;82;31044;-71
2022/11/30 00:43:38;;;;;;;106.45;53.83;;;;;;;-0.55;81.91;101165.86;2154408;82;32980;-71
2022/11/30 00:46:40;;;;;;;102.90;50.65;;;;;;;-0.57;81.98;101164.95;2098765;84;30120;-71
2022/11/30 00:49:41;;;;;;;107.75;54.20;;;;;;;-0.60;82.00;101165.81;2094743;84;27730;-70
2022/11/30 00:52:42;;;;;;;106.35;52.93;;;;;;;-0.62;81.95;101164.91;2120560;84;28714;-71
2022/11/30 00:55:44;;;;;;;101.65;52.48;;;;;;;-0.61;82.01;101166.69;2094636;85;31045;-74
2022/11/30 00:58:45;;;;;;;109.15;53.75;;;;;;;-0.63;82.01;101162.73;2152996;82;32941;-71
2022/11/30 01:01:47;;;;;;;108.57;55.80;;;;;;;-0.66;82.01;101167.95;2094317;85;29544;-71
2022/11/30 01:04:48;;;;;;;107.75;52.27;;;;;;;-0.68;82.06;101170.14;2120571;83;27667;-71
2022/11/30 01:07:49;;;;;;;99.50;49.83;;;;;;;-0.71;82.08;101169.65;2094596;85;28628;-71
2022/11/30 01:10:53;;;;;;;109.32;54.70;;;;;;;-0.72;82.20;101166.56;2120482;83;31012;-71
2022/11/30 01:13:55;;;;;;;107.63;53.73;;;;;;;-0.73;82.13;101169.19;2111803;83;32964;-70
2022/11/30 01:16:56;;;;;;;102.10;51.18;;;;;;;-0.75;82.12;101166.97;2115348;84;29948;-70
2022/11/30 01:19:58;;;;;;;105.47;52.73;;;;;;;-0.76;82.33;101168.73;2111787;84;27642;-71
2022/11/30 01:22:59;;;;;;;100.58;51.18;;;;;;;-0.75;82.22;101172.23;2111679;84;28792;-69
2022/11/30 01:26:01;;;;;;;107.10;52.17;;;;;;;-0.79;82.22;101176.14;2111679;84;31083;-69
2022/11/30 01:29:02;;;;;;;107.72;53.30;;;;;;;-0.80;82.22;101174.82;2111594;84;32964;-69
2022/11/30 01:32:04;;;;;;;111.42;54.05;;;;;;;-0.79;82.22;101172.64;2111698;84;29360;-69
2022/11/30 01:35:07;;;;;;;110.10;55.23;;;;;;;-0.79;82.22;101177.91;2111790;84;27618;-69
2022/11/30 01:38:09;;;;;;;115.12;54.45;;;;;;;-0.77;82.26;101179.67;2111605;84;29481;-67
2022/11/30 01:41:13;;;;;;;111.12;54.93;;;;;;;-0.75;82.24;101188.92;2112241;83;31023;-67
2022/11/30 01:44:25;;;;;;;111.35;54.00;;;;;;;-0.73;82.28;101188.92;2118589;83;33710;-67
2022/11/30 01:47:38;;;;;;;109.32;52.38;;;;;;;-0.70;82.38;101187.20;2135200;82;31116;-67
2022/11/30 01:50:39;;;;;;;106.07;50.58;;;;;;;-0.68;82.37;101185.47;2145690;83;27697;-68
2022/11/30 01:53:40;;;;;;;108.75;53.33;;;;;;;-0.62;82.49;101189.91;2121011;83;29415;-68
2022/11/30 01:56:58;;;;;;;112.12;52.83;;;;;;;-0.60;82.50;101189.95;2202879;80;31014;-68
2022/11/30 02:00:02;;;;;;;118.00;55.28;;;;;;;-0.59;82.52;101196.53;2205013;80;32956;-68
2022/11/30 02:03:37;;;;;;;79.27;39.23;;;;;;;-0.58;82.38;101199.62;2204907;80;29409;-69
2022/11/30 02:06:38;;;;;;;107.75;51.05;;;;;;;-0.55;82.41;101197.44;2205281;80;27722;-68
2022/11/30 02:09:43;;;;;;;109.65;51.83;;;;;;;-0.54;82.39;101196.58;2205281;80;29403;-69
2022/11/30 02:13:11;;;;;;;107.10;51.98;;;;;;;-0.55;82.49;101195.70;2205009;80;31839;-67
2022/11/30 02:16:40;;;;;;;108.47;54.20;;;;;;;-0.52;82.47;101202.74;2203855;80;33747;-68
2022/11/30 02:19:59;;;;;;;110.32;51.75;;;;;;;-0.50;82.47;101204.55;2205174;80;29325;-68
2022/11/30 02:23:31;;;;;;;110.48;51.20;;;;;;;-0.49;82.36;101200.16;2205100;80;28172;-68
2022/11/30 02:27:22;;;;;;;106.67;51.70;;;;;;;-0.44;82.38;101203.72;2125380;83;29443;-68
2022/11/30 02:30:24;;;;;;;114.95;55.03;;;;;;;-0.40;82.42;101197.59;2125556;83;31038;-68
2022/11/30 02:33:28;;;;;;;106.67;51.08;;;;;;;-0.38;82.32;101192.37;2125533;83;33603;-69
2022/11/30 02:36:30;;;;;;;82.12;38.35;;;;;;;-0.35;82.39;101194.59;2125499;83;30125;-68
2022/11/30 02:39:32;;;;;;;107.17;50.25;;;;;;;-0.33;82.28;101190.67;2125341;83;27717;-68
2022/11/30 02:42:33;;;;;;;114.82;53.10;;;;;;;-0.33;82.27;101196.80;2120809;83;29237;-68
2022/11/30 02:46:01;;;;;;;117.30;54.33;;;;;;;-0.37;82.11;101195.00;2125073;83;30997;-69
2022/11/30 02:49:32;;;;;;;106.05;47.93;;;;;;;-0.36;82.14;101197.22;2124939;83;34036;-69
2022/11/30 02:52:34;;;;;;;122.75;55.73;;;;;;;-0.35;82.21;101198.98;2124561;83;29361;-68
2022/11/30 02:55:36;;;;;;;112.55;52.03;;;;;;;-0.40;82.10;101205.49;2125278;83;27854;-68
2022/11/30 02:58:38;;;;;;;116.65;52.40;;;;;;;-0.41;82.12;101208.99;2125224;83;29476;-69
2022/11/30 03:01:41;;;;;;;116.05;53.55;;;;;;;-0.41;82.19;101208.99;2124917;83;31172;-70
2022/11/30 03:04:42;;;;;;;107.80;49.38;;;;;;;-0.42;82.16;101205.04;2186399;80;33002;-69
2022/11/30 03:07:44;;;;;;;121.53;54.53;;;;;;;-0.42;82.26;101205.94;2205317;80;30263;-69
2022/11/30 03:10:45;;;;;;;121.62;53.52;;;;;;;-0.40;82.31;101209.89;2205291;80;27573;-69
2022/11/30 03:13:46;;;;;;;120.62;55.83;;;;;;;-0.39;82.32;101217.80;2205259;80;29460;-69
2022/11/30 03:16:47;;;;;;;104.40;48.85;;;;;;;-0.38;82.29;101222.64;2205187;80;30414;-69
2022/11/30 03:19:48;;;;;;;108.32;50.10;;;;;;;-0.39;82.32;101214.30;2205169;80;32923;-69
2022/11/30 03:22:50;;;;;;;116.05;52.67;;;;;;;-0.40;82.35;101218.66;2205265;80;30103;-69
2022/11/30 03:25:53;;;;;;;109.72;48.40;;;;;;;-0.38;82.36;101233.17;2205274;80;27689;-70
2022/11/30 03:28:54;;;;;;;104.63;47.15;;;;;;;-0.39;82.29;101227.00;2211148;80;29467;-70
2022/11/30 03:31:55;;;;;;;107.20;46.05;;;;;;;-0.41;82.33;101227.87;2205402;80;30999;-69
2022/11/30 03:34:56;;;;;;;99.65;45.30;;;;;;;-0.41;82.38;101236.63;2200102;80;32996;-70
2022/11/30 03:37:57;;;;;;;105.17;48.45;;;;;;;-0.43;82.38;101234.45;2205392;80;29325;-70
2022/11/30 03:41:12;;;;;;;109.03;48.20;;;;;;;-0.44;82.41;101246.25;2205384;80;27655;-69
2022/11/30 03:44:13;;;;;;;109.97;48.98;;;;;;;-0.43;82.45;101244.08;2205334;80;28706;-70
2022/11/30 03:47:15;;;;;;;124.47;53.80;;;;;;;-0.47;82.53;101246.67;2193107;80;31891;-70
2022/11/30 03:50:16;;;;;;;119.40;51.28;;;;;;;-0.47;82.54;101258.52;2132292;83;33067;-69
2022/11/30 03:53:20;;;;;;;122.58;50.80;;;;;;;-0.47;82.56;101244.03;2157077;82;29410;-69
2022/11/30 03:56:21;;;;;;;120.28;51.42;;;;;;;-0.53;82.65;101253.61;2148400;82;27685;-68
2022/11/30 03:59:22;;;;;;;120.02;52.50;;;;;;;-0.58;82.66;101250.07;2148363;82;28619;-69
2022/11/30 04:02:23;;;;;;;125.02;52.48;;;;;;;-0.59;82.72;101251.80;2148147;82;31079;-69
2022/11/30 04:05:25;;;;;;;123.67;53.35;;;;;;;-0.57;82.79;101251.80;2148120;82;32976;-68
2022/11/30 04:08:27;;;;;;;114.75;49.85;;;;;;;-0.58;82.87;101261.46;2148256;82;29318;-68
2022/11/30 04:11:28;;;;;;;122.13;54.40;;;;;;;-0.57;83.05;101262.33;2148369;82;27749;-68
2022/11/30 04:14:29;;;;;;;123.10;54.20;;;;;;;-0.56;82.97;101261.05;2148356;82;28849;-68
2022/11/30 04:17:30;;;;;;;129.95;55.12;;;;;;;-0.54;83.15;101277.75;2148254;82;31003;-68
2022/11/30 04:20:32;;;;;;;117.90;50.15;;;;;;;-0.52;83.11;101273.80;2148362;82;32950;-68
2022/11/30 04:23:38;;;;;;;121.28;51.35;;;;;;;-0.51;83.09;101275.58;2148368;82;29315;-68
2022/11/30 04:26:39;;;;;;;115.77;51.18;;;;;;;-0.52;82.99;101279.07;2148138;82;27652;-68
2022/11/30 04:29:41;;;;;;;130.87;55.33;;;;;;;-0.50;83.09;101276.92;2148343;82;28647;-68
2022/11/30 04:32:42;;;;;;;127.58;53.48;;;;;;;-0.50;83.04;101279.56;2148403;82;32084;-68
2022/11/30 04:35:51;;;;;;;114.45;50.95;;;;;;;-0.46;83.15;101280.47;2130455;82;32986;-68
2022/11/30 04:38:52;;;;;;;107.70;47.93;;;;;;;-0.44;83.11;101281.37;2117416;84;29340;-69
2022/11/30 04:41:53;;;;;;;102.75;44.45;;;;;;;-0.42;83.14;101282.28;2117512;84;27734;-68
2022/11/30 04:44:54;;;;;;;105.37;46.75;;;;;;;-0.42;83.13;101279.65;2156339;82;28618;-68
2022/11/30 04:47:55;;;;;;;111.35;46.73;;;;;;;-0.44;83.00;101280.47;2154662;81;32170;-68
2022/11/30 04:51:07;;;;;;;111.55;48.73;;;;;;;-0.47;83.04;101283.52;2152740;82;33080;-68
2022/11/30 04:54:09;;;;;;;91.92;39.42;;;;;;;-0.46;83.06;101278.70;2152951;82;29335;-68
2022/11/30 04:57:10;;;;;;;103.07;46.83;;;;;;;-0.45;83.21;101273.03;2152877;82;27706;-68
2022/11/30 05:00:14;;;;;;;101.85;46.37;;;;;;;-0.47;83.06;101283.52;2137068;83;28637;-68
2022/11/30 05:03:15;;;;;;;105.90;45.55;;;;;;;-0.44;83.13;101278.75;2153650;82;31844;-68
2022/11/30 05:06:17;;;;;;;105.27;46.73;;;;;;;-0.44;83.18;101281.37;2152947;82;33535;-69
2022/11/30 05:09:21;;;;;;;105.83;46.20;;;;;;;-0.47;83.07;101283.97;2125454;83;29315;-68
2022/11/30 05:12:22;;;;;;;83.60;37.03;;;;;;;-0.46;83.20;101282.66;2147149;82;33050;-69
2022/11/30 05:15:23;;;;;;;104.05;46.18;;;;;;;-0.46;83.17;101281.78;2147048;82;29590;-70
2022/11/30 05:18:25;;;;;;;105.63;45.88;;;;;;;-0.44;83.29;101285.73;2147014;82;31021;-69
2022/11/30 05:21:26;;;;;;;114.57;47.60;;;;;;;-0.43;83.26;101287.51;2146989;82;33136;-69
2022/11/30 05:24:27;;;;;;;97.75;44.08;;;;;;;-0.44;83.28;101293.22;2146565;82;30500;-70
2022/11/30 05:27:29;;;;;;;100.15;43.00;;;;;;;-0.41;83.34;101287.97;2137020;83;27733;-69
2022/11/30 05:30:30;;;;;;;98.47;44.08;;;;;;;-0.40;83.30;101284.47;2152851;82;28624;-69
2022/11/30 05:33:32;;;;;;;97.62;43.60;;;;;;;-0.37;83.26;101291.54;2135942;82;31451;-70
2022/11/30 05:36:33;;;;;;;95.25;43.40;;;;;;;-0.38;83.18;101297.67;2141122;83;33002;-70
2022/11/30 05:39:35;;;;;;;105.25;44.50;;;;;;;-0.40;83.20;101305.98;2140996;82;29327;-70
2022/11/30 05:42:36;;;;;;;102.58;44.33;;;;;;;-0.39;83.25;101311.25;2141197;83;27652;-70
2022/11/30 05:45:37;;;;;;;95.32;42.75;;;;;;;-0.38;83.22;101314.33;2141040;83;28633;-70
2022/11/30 05:48:39;;;;;;;97.53;43.30;;;;;;;-0.36;83.28;101311.73;2149863;82;31025;-69
2022/11/30 05:51:40;;;;;;;101.87;44.77;;;;;;;-0.36;83.29;101317.00;2157268;82;32435;-70
2022/11/30 05:54:41;;;;;;;104.78;45.45;;;;;;;-0.38;83.22;101308.20;2157310;82;29484;-70
2022/11/30 05:57:42;;;;;;;99.05;41.33;;;;;;;-0.36;83.29;101315.69;2157547;82;27719;-69
2022/11/30 06:00:44;;;;;;;96.90;42.27;;;;;;;-0.36;83.30;101313.92;2157236;82;28589;-70
2022/11/30 06:03:45;;;;;;;95.62;41.73;;;;;;;-0.39;83.21;101312.56;2141556;82;31788;-69
2022/11/30 06:06:48;;;;;;;97.02;43.87;;;;;;;-0.36;83.35;101309.97;2120426;83;33061;-70
2022/11/30 06:09:49;;;;;;;102.53;42.88;;;;;;;-0.33;83.35;101311.78;2120798;83;29361;-70
2022/11/30 06:12:50;;;;;;;94.55;41.00;;;;;;;-0.28;83.35;101310.51;2146065;82;27664;-69
2022/11/30 06:15:52;;;;;;;91.57;40.83;;;;;;;-0.26;83.33;101315.36;2157399;82;29465;-71
2022/11/30 06:18:53;;;;;;;98.33;41.23;;;;;;;-0.26;83.25;101319.31;2157258;82;31061;-70
2022/11/30 06:21:54;;;;;;;116.93;41.98;;;;;;;-0.29;83.17;101324.09;2157287;82;32945;-70
2022/11/30 06:24:55;;;;;;;109.60;42.60;;;;;;;-0.37;83.18;101318.73;2157370;82;29294;-71
2022/11/30 06:27:56;;;;;;;99.90;43.38;;;;;;;-0.41;83.19;101322.64;2157166;82;27624;-70
2022/11/30 06:31:04;;;;;;;96.75;41.63;;;;;;;-0.43;83.31;101324.36;2131714;82;28652;-70
2022/11/30 06:34:05;;;;;;;106.32;44.38;;;;;;;-0.43;83.36;101322.63;2132673;82;31926;-69
2022/11/30 06:37:06;;;;;;;93.00;41.00;;;;;;;-0.44;83.33;101334.44;2120615;83;33074;-69
2022/11/30 06:40:10;;;;;;;97.62;39.90;;;;;;;-0.44;83.43;101335.34;2121032;83;29345;-70
2022/11/30 06:43:11;;;;;;;100.50;40.75;;;;;;;-0.47;83.43;101344.06;2121011;83;27732;-70
2022/11/30 06:46:13;;;;;;;94.50;40.38;;;;;;;-0.48;83.53;101342.73;2120900;83;28630;-70
2022/11/30 06:49:22;;;;;;;99.58;42.83;;;;;;;-0.48;83.56;101351.50;2120733;83;31821;-71
2022/11/30 06:52:33;;;;;;;100.53;40.98;;;;;;;-0.46;83.63;101348.91;2120526;83;33044;-72
2022/11/30 06:55:34;;;;;;;89.67;38.33;;;;;;;-0.47;83.68;101349.77;2121065;83;29329;-71
2022/11/30 06:58:38;;;;;;;95.40;40.95;;;;;;;-0.47;83.70;101351.95;2120635;84;27679;-70
2022/11/30 07:01:39;;;;;;;89.60;38.33;;;;;;;-0.43;83.72;101355.53;2121041;83;28682;-73
2022/11/30 07:04:41;;;;;;;94.87;39.23;;;;;;;-0.38;83.75;101356.91;2121122;82;31812;-72
2022/11/30 07:07:42;;;;;;;91.78;38.45;;;;;;;-0.37;83.69;101356.04;2120847;83;32948;-73
2022/11/30 07:10:45;;;;;;;94.77;40.65;;;;;;;-0.35;83.77;101353.00;2120882;83;29319;-73
2022/11/30 07:13:46;;;;;;;91.45;39.38;;;;;;;-0.33;83.67;101359.17;2121050;83;27726;-71
2022/11/30 07:16:48;;;;;;;92.37;39.48;;;;;;;-0.29;83.67;101357.45;2120969;83;29487;-72
2022/11/30 07:19:49;;;;;;;93.17;41.65;;;;;;;-0.27;83.61;101361.86;2120876;83;31045;-71
2022/11/30 07:22:54;;;;;;;94.40;40.50;;;;;;;-0.25;83.58;101360.13;2120902;83;33775;-70
2022/11/30 07:26:06;;;;;;;82.95;38.30;;;;;;;-0.25;83.53;101365.40;2110658;84;29368;-72
2022/11/30 07:29:07;;;;;;;84.80;36.23;;;;;;;-0.26;83.50;101367.58;2164156;81;27692;-72
2022/11/30 07:32:08;;;;;;;98.37;40.60;;;;;;;-0.26;83.58;101371.53;2165791;81;28206;-69
2022/11/30 07:35:10;;;;;;;87.15;38.38;;;;;;;-0.28;83.60;101372.39;2164602;82;31005;-70
2022/11/30 07:38:11;;;;;;;71.62;32.20;;;;;;;-0.25;83.64;101365.84;2164189;82;33022;-71
2022/11/30 07:41:13;;;;;;;78.52;34.15;;;;;;;-0.22;83.66;101377.30;2164226;82;29966;-72
2022/11/30 07:44:14;;;;;;;94.30;39.83;;;;;;;-0.21;83.58;101381.70;2167052;81;27709;-72
2022/11/30 07:47:16;;;;;;;92.20;39.45;;;;;;;-0.22;83.47;101385.19;2167117;82;28615;-71
2022/11/30 07:50:17;;;;;;;88.12;38.40;;;;;;;-0.21;83.58;101383.42;2154646;81;31034;-71
2022/11/30 07:53:18;;;;;;;78.10;35.13;;;;;;;-0.19;83.53;101392.23;2152997;82;32988;-72
2022/11/30 07:56:20;;;;;;;88.03;38.45;;;;;;;-0.17;83.61;101385.24;2152808;82;29531;-72
2022/11/30 07:59:21;;;;;;;85.85;37.28;;;;;;;-0.19;83.48;101381.70;2137168;83;27697;-73
2022/11/30 08:02:22;;;;;;;90.35;37.13;;;;;;;-0.19;83.48;101384.34;2152853;82;28618;-72
2022/11/30 08:05:23;;;;;;;92.67;39.55;;;;;;;-0.16;83.52;101385.70;2099331;84;31061;-72
2022/11/30 08:08:35;;;;;;;76.40;33.33;;;;;;;-0.11;83.55;101381.80;2152886;82;32929;-72
2022/11/30 08:11:36;;;;;;;77.67;36.08;;;;;;;-0.07;83.53;101378.34;2125270;83;29340;-72
2022/11/30 08:14:37;;;;;;;86.35;39.20;;;;;;;-0.05;83.41;101382.75;2147295;82;27689;-71
2022/11/30 08:17:39;;;;;;;84.90;37.13;;;;;;;-0.03;83.34;101386.73;2147071;82;28614;-72
2022/11/30 08:20:40;;;;;;;81.57;36.40;;;;;;;0.00;83.38;101377.56;2147110;82;30518;-71
2022/11/30 08:23:45;;;;;;;85.67;37.03;;;;;;;0.07;83.44;101389.91;2147015;82;32936;-71
2022/11/30 08:26:50;;;;;;;83.37;36.03;;;;;;;0.08;83.35;101387.73;2136948;83;30319;-72
2022/11/30 08:29:52;;;;;;;94.25;38.95;;;;;;;0.10;83.26;101392.59;2153112;82;27660;-72
2022/11/30 08:32:53;;;;;;;85.38;36.13;;;;;;;0.09;83.19;101391.23;2133961;82;28641;-70
2022/11/30 08:35:54;;;;;;;85.62;38.65;;;;;;;0.12;83.33;101384.69;2141375;83;31001;-70
2022/11/30 08:38:58;;;;;;;84.17;36.77;;;;;;;0.18;83.28;101382.55;2141210;83;33001;-71
2022/11/30 08:42:00;;;;;;;75.65;35.10;;;;;;;0.21;83.17;101390.08;2141274;82;29350;-70
2022/11/30 08:45:02;;;;;;;78.62;36.17;;;;;;;0.24;83.12;101391.44;2141297;82;27701;-72
2022/11/30 08:48:04;;;;;;;82.72;35.73;;;;;;;0.27;83.04;101390.13;2141347;82;28640;-72
2022/11/30 08:51:09;;;;;;;88.97;38.80;;;;;;;0.25;82.91;101388.34;2157390;82;31133;-71
2022/11/30 08:54:10;;;;;;;76.28;32.73;;;;;;;0.25;82.85;101389.67;2157528;82;32960;-72
2022/11/30 08:57:15;;;;;;;83.55;36.20;;;;;;;0.25;82.81;101390.98;2157207;82;29398;-73
2022/11/30 09:00:18;;;;;;;82.05;34.50;;;;;;;0.25;82.92;101397.58;2156422;82;27740;-71
2022/11/30 09:03:20;;;;;;;84.92;36.77;;;;;;;0.29;82.99;101405.52;2157234;82;28648;-71
2022/11/30 09:06:27;;;;;;;96.30;38.48;;;;;;;0.35;83.09;101404.70;2157336;82;30991;-71
2022/11/30 09:09:29;;;;;;;88.82;39.13;;;;;;;0.40;82.90;101412.68;2157373;82;32956;-70
2022/11/30 09:12:32;;;;;;;87.67;37.50;;;;;;;0.44;82.94;101404.81;2157410;82;30137;-71
2022/11/30 09:15:33;;;;;;;81.67;36.35;;;;;;;0.52;82.93;101402.66;2158874;82;28309;-70
2022/11/30 09:18:35;;;;;;;83.22;36.85;;;;;;;0.54;82.71;101396.98;2157358;82;28695;-71
2022/11/30 09:21:36;;;;;;;73.35;35.35;;;;;;;0.53;82.60;101400.06;2157485;82;31106;-71
2022/11/30 09:24:37;;;;;;;83.60;38.67;;;;;;;0.53;82.56;101400.48;2157342;82;32962;-72
2022/11/30 09:27:39;;;;;;;85.45;37.65;;;;;;;0.54;82.67;101397.88;2157627;82;29318;-71
2022/11/30 09:30:40;;;;;;;86.20;36.73;;;;;;;0.58;82.79;101400.97;2157450;82;28145;-70
2022/11/30 09:33:42;;;;;;;91.65;38.60;;;;;;;0.65;82.80;101393.13;2136851;82;28616;-72
2022/11/30 09:36:44;;;;;;;89.28;39.65;;;;;;;0.70;82.67;101399.34;2175809;81;31843;-69
2022/11/30 09:39:45;;;;;;;90.10;38.70;;;;;;;0.73;82.68;101399.37;2147713;82;33041;-70
2022/11/30 09:43:20;;;;;;;75.52;35.15;;;;;;;0.78;82.65;101394.99;2176380;81;29467;-70
2022/11/30 09:46:26;;;;;;;88.75;38.05;;;;;;;0.79;82.45;101395.45;2151867;82;27656;-69
2022/11/30 09:49:43;;;;;;;90.40;37.30;;;;;;;0.81;82.42;101402.07;2146130;82;28682;-68
2022/11/30 09:53:04;;;;;;;80.65;36.70;;;;;;;0.83;82.44;101406.92;2157444;82;31452;-69
2022/11/30 09:56:29;;;;;;;80.77;36.10;;;;;;;0.84;82.27;101410.89;2161871;81;32977;-69
2022/11/30 09:59:32;;;;;;;68.95;32.00;;;;;;;0.81;82.07;101412.17;2122922;83;29395;-69
2022/11/30 10:02:37;;;;;;;73.92;34.45;;;;;;;0.79;82.08;101409.08;2147238;82;27637;-70
2022/11/30 10:06:01;;;;;;;72.75;33.40;;;;;;;0.74;81.97;101413.01;2141228;83;29500;-70
2022/11/30 10:09:17;;;;;;;64.72;31.37;;;;;;;0.74;82.06;101419.59;2141055;83;31880;-72
2022/11/30 10:12:27;;;;;;;75.75;31.85;;;;;;;0.72;81.91;101413.42;2140202;82;32973;-70
2022/11/30 10:16:06;;;;;;;73.12;34.70;;;;;;;0.74;82.12;101411.69;2141188;83;29389;-73
2022/11/30 10:19:20;;;;;;;73.47;31.68;;;;;;;0.80;82.32;101412.17;2141441;83;27589;-71
2022/11/30 10:23:03;;;;;;;73.47;35.70;;;;;;;0.87;82.24;101403.42;2124683;83;28656;-72
2022/11/30 10:26:10;;;;;;;68.75;31.77;;;;;;;0.96;82.42;101401.30;2113709;84;31410;-70
2022/11/30 10:29:19;;;;;;;75.12;34.78;;;;;;;1.05;82.21;101403.57;2113855;84;33849;-70
2022/11/30 10:32:25;;;;;;;67.17;32.78;;;;;;;1.10;82.17;101403.59;2113531;84;29472;-71
2022/11/30 10:35:51;;;;;;;75.57;33.42;;;;;;;1.16;82.14;101401.47;2153073;82;27657;-70
2022/11/30 10:38:57;;;;;;;75.52;35.68;;;;;;;1.24;82.02;101400.20;2152822;82;28674;-72
2022/11/30 10:42:12;;;;;;;67.32;32.60;;;;;;;1.30;82.00;101398.90;2099197;84;31851;-69
2022/11/30 10:45:22;;;;;;;70.57;31.87;;;;;;;1.33;81.80;101397.15;2152774;82;34109;-71
2022/11/30 10:48:39;;;;;;;68.45;32.17;;;;;;;1.35;81.65;101401.14;2125243;83;30120;-70
2022/11/30 10:51:43;;;;;;;74.95;33.28;;;;;;;1.35;81.51;101398.50;2175686;80;27669;-72
2022/11/30 10:54:50;;;;;;;74.40;34.55;;;;;;;1.35;81.51;101399.37;2176009;81;28692;-72
2022/11/30 10:58:02;;;;;;;81.22;35.40;;;;;;;1.34;81.34;101401.56;2176130;81;31033;-70
2022/11/30 11:01:10;;;;;;;70.00;33.15;;;;;;;1.31;81.27;101406.84;2176080;81;33745;-69
2022/11/30 11:04:21;;;;;;;61.20;30.85;;;;;;;1.29;81.10;101409.91;2176272;81;29492;-70
2022/11/30 11:07:22;;;;;;;72.65;30.60;;;;;;;1.18;80.80;101411.56;2175548;81;27649;-68
2022/11/30 11:10:46;;;;;;;65.03;30.72;;;;;;;1.11;80.74;101414.60;2176103;81;29478;-70
2022/11/30 11:13:48;;;;;;;67.27;31.40;;;;;;;1.03;80.82;101416.31;2175919;81;31223;-69
2022/11/30 11:16:59;;;;;;;71.25;32.70;;;;;;;0.95;80.79;101414.94;2176052;81;32992;-69
2022/11/30 11:20:00;;;;;;;60.20;29.72;;;;;;;0.91;80.98;101414.00;2176163;81;29322;-71
2022/11/30 11:23:03;;;;;;;65.65;31.33;;;;;;;0.88;80.92;101410.47;2176163;80;27640;-72
2022/11/30 11:26:09;;;;;;;67.10;30.55;;;;;;;0.83;80.96;101411.75;2175993;81;28655;-71
2022/11/30 11:29:12;;;;;;;69.72;33.15;;;;;;;0.78;80.88;101406.00;2173302;81;31079;-70
2022/11/30 11:32:21;;;;;;;71.15;31.48;;;;;;;0.74;81.01;101408.60;2149404;81;33044;-71
2022/11/30 11:35:45;;;;;;;66.67;30.25;;;;;;;0.74;81.11;101403.33;2175484;81;29335;-74
2022/11/30 11:38:47;;;;;;;68.95;33.45;;;;;;;0.75;81.13;101403.77;2176429;81;27696;-71
2022/11/30 11:41:49;;;;;;;66.12;31.17;;;;;;;0.81;81.17;101398.98;2176297;81;29445;-72
2022/11/30 11:44:54;;;;;;;70.15;33.28;;;;;;;0.87;81.28;101400.78;2176284;81;31018;-70
2022/11/30 11:48:02;;;;;;;71.28;34.78;;;;;;;0.91;81.17;101407.86;2176394;81;33758;-73
2022/11/30 11:51:07;;;;;;;68.52;32.88;;;;;;;0.93;81.11;101402.58;2156785;81;30075;-71
2022/11/30 11:54:26;;;;;;;70.70;35.10;;;;;;;0.95;81.04;101400.84;2153462;82;27652;-71
2022/11/30 11:57:45;;;;;;;71.77;33.80;;;;;;;0.98;81.02;101400.88;2153578;81;29476;-71
2022/11/30 12:00:47;;;;;;;63.87;32.50;;;;;;;1.02;81.04;101400.03;2125689;83;31037;-69
2022/11/30 12:04:06;;;;;;;68.83;32.53;;;;;;;1.08;80.92;101398.73;2147089;82;32970;-77
2022/11/30 12:07:25;;;;;;;63.60;30.55;;;;;;;1.10;80.70;101395.68;2117867;84;29325;-73
2022/11/30 12:10:48;;;;;;;64.40;33.15;;;;;;;1.14;80.63;101401.44;2118124;84;27676;-70
2022/11/30 12:13:49;;;;;;;66.20;31.68;;;;;;;1.14;80.43;101404.53;2103072;84;29625;-68
2022/11/30 12:17:34;;;;;;;67.90;34.05;;;;;;;1.17;80.50;101397.92;2079630;84;31177;-69
2022/11/30 12:20:59;;;;;;;68.28;31.95;;;;;;;1.21;80.46;101408.95;2102278;84;33936;-67
2022/11/30 12:24:25;;;;;;;47.90;22.77;;;;;;;1.24;80.22;101412.95;2110320;84;29341;-67
2022/11/30 12:27:38;;;;;;;70.78;35.28;;;;;;;1.21;80.09;101408.54;2076531;85;27786;-68
2022/11/30 12:31:16;;;;;;;74.35;36.45;;;;;;;1.22;80.14;101416.00;2027193;86;28749;-73
2022/11/30 12:34:46;;;;;;;73.75;36.93;;;;;;;1.23;80.28;101416.45;2093951;85;31951;-68
2022/11/30 12:38:08;;;;;;;73.10;35.65;;;;;;;1.25;80.10;101420.41;2076295;85;32985;-69
2022/11/30 12:41:32;;;;;;;73.40;34.35;;;;;;;1.21;79.96;101417.78;2038654;85;29329;-69
2022/11/30 12:44:58;;;;;;;83.27;41.42;;;;;;;1.17;79.86;101409.80;2132898;82;27848;-70
2022/11/30 12:48:19;;;;;;;72.05;36.90;;;;;;;1.17;79.99;101415.98;2152730;82;29694;-69
2022/11/30 12:51:38;;;;;;;78.28;38.85;;;;;;;1.16;80.02;101414.21;2153095;82;31033;-69
2022/11/30 12:55:08;;;;;;;84.05;40.58;;;;;;;1.18;80.05;101416.43;2137215;83;32407;-69
2022/11/30 12:58:33;;;;;;;87.60;41.55;;;;;;;1.19;80.26;101407.64;2152708;82;29330;-69
2022/11/30 13:01:58;;;;;;;63.28;29.87;;;;;;;1.24;80.16;101410.30;2152945;82;27675;-69
2022/11/30 13:05:07;;;;;;;69.30;34.73;;;;;;;1.19;79.86;101411.59;2098808;84;29815;-70
2022/11/30 13:08:17;;;;;;;79.75;38.45;;;;;;;1.18;79.92;101415.11;2152940;82;31232;-70
2022/11/30 13:11:37;;;;;;;80.38;37.42;;;;;;;1.15;79.87;101417.72;2153123;82;33745;-70
2022/11/30 13:14:38;;;;;;;76.20;36.88;;;;;;;1.13;79.88;101413.31;2153098;82;29324;-70
2022/11/30 13:17:40;;;;;;;78.95;38.40;;;;;;;1.10;79.75;101415.92;2125410;83;27816;-70
2022/11/30 13:20:49;;;;;;;72.10;36.93;;;;;;;1.04;79.75;101416.31;2156924;82;28627;-70
2022/11/30 13:24:05;;;;;;;80.10;39.30;;;;;;;1.01;79.62;101414.97;2151616;82;31077;-70
2022/11/30 13:27:24;;;;;;;81.95;40.43;;;;;;;0.98;79.85;101408.79;2153189;81;32954;-69
2022/11/30 13:30:33;;;;;;;84.83;40.67;;;;;;;0.96;79.94;101407.89;2153578;81;29333;-69
2022/11/30 13:33:48;;;;;;;77.10;38.55;;;;;;;0.96;80.00;101402.61;2146519;82;27566;-68
2022/11/30 13:36:53;;;;;;;79.87;38.33;;;;;;;0.90;79.79;101404.36;2109884;82;31126;-69
2022/11/30 13:39:55;;;;;;;80.25;39.70;;;;;;;0.83;79.66;101410.89;2145678;82;35308;-68
2022/11/30 13:42:56;;;;;;;80.00;39.65;;;;;;;0.78;79.73;101412.14;2146223;82;32977;-68
2022/11/30 13:46:10;;;;;;;75.50;36.03;;;;;;;0.72;79.73;101406.83;2146426;82;29327;-68
2022/11/30 13:49:19;;;;;;;82.50;39.05;;;;;;;0.68;79.67;101406.34;2142865;82;27581;-68
2022/11/30 13:52:58;;;;;;;77.85;38.90;;;;;;;0.66;79.96;101409.40;2105246;84;28834;-68
2022/11/30 13:56:08;;;;;;;78.20;39.75;;;;;;;0.70;80.05;101418.66;2108165;84;31243;-70
2022/11/30 13:59:27;;;;;;;77.45;37.20;;;;;;;0.72;79.92;101411.66;2083085;85;33767;-67
2022/11/30 14:02:45;;;;;;;71.90;35.23;;;;;;;0.73;79.95;101417.38;2080620;85;29961;-69
2022/11/30 14:05:49;;;;;;;63.90;33.98;;;;;;;0.72;79.74;101422.66;2110671;84;27669;-69
2022/11/30 14:08:50;;;;;;;93.78;43.45;;;;;;;0.71;79.75;101424.39;2108163;84;29598;-70